x

West Santa Barbara 38 Nm West Of Santa Barbara, Ca (46054) Wave Buoy

8:50 - Tue 28th Apr 2015 All times are PDT. -7 hours from GMT.

  • Sig Wave height 5.6ft
  • Swell Direction
  • Peak Period 8s
  • Average Period 6s
  • Wind
    16mph, 20mph gusts
  • Sea Temp 52°f
  • Air Temp 52°f
  • Sea Pressure 1014.3mb
  • West Santa Barbara  38 Nm West Of Santa Barbara, Ca
  • West Santa Barbara  38 Nm West Of Santa Barbara, Ca

More Historic Weather Station data

Upgrade to MSW Pro to gain access to the past 30 days of data for over 8000 Wavebouys and Weather Stations around the globe.

Join Pro

Comparision Forecast

View Surf forecast
   
mar. 04/28 8:50 5.5ft 8s 6s 16 20 mph 1014.3mb 52f 52f
7:50 6ft 8s 6s 20 25 mph 1013.9mb 52f 50f
6:50 6ft 7s 5s 22 27 mph 1013.4mb 52f 51f
5:50 6ft 8s 5s 25 31 mph 1013mb 52f 51f
4:50 6ft 8s 5s 27 31 mph 1013.1mb 52f 51f
3:50 6.5ft 8s 5s 25 31 mph 1013.5mb 52f 51f
2:50 6ft 9s 5s 27 31 mph 1013.8mb 52f 51f
1:50 5ft 8s 5s 27 31 mph 1014mb 52f 51f
12:50 5ft 8s 5s 25 29 mph 1014.4mb 52f 52f
lun. 04/27 11:50 5ft 8s 5s 22 29 mph 1014.6mb 53f 53f
10:50 5ft 8s 5s 22 29 mph 1014.6mb 53f 54f
9:50 4.5ft 8s 6s 22 25 mph 1014.4mb 53f 55f
8:50 4.5ft 8s 6s 20 22 mph 1013.9mb 53f 56f
7:50 5ft 8s 5s 20 22 mph 1013.4mb 54f 56f
6:50 4.5ft 8s 5s 20 25 mph 1012.9mb 54f 56f
5:50 5ft 8s 6s 18 20 mph 1013mb 54f 56f
4:50 5ft 8s 6s 18 22 mph 1013mb 53f 56f
3:50 5ft 8s 6s 16 18 mph 1013.4mb 54f 56f
2:50 5ft 8s 6s 13 16 mph 1014.2mb 53f 56f
1:50 5.5ft 8s 6s 11 13 mph 1014.7mb 54f 55f
12:50 5ft 7s 6s 11 13 mph 1015mb 53f 56f
11:50 5ft 8s 6s 13
mph
1015.2mb 53f 55f
10:50 5ft 7s 6s 13
mph
1015.2mb 53f 56f
9:50 5.5ft 9s 7s 11
mph
1015mb 52f 55f
8:50 5ft 8s 7s 9 11 mph 1014.9mb 52f 55f
7:50 5.5ft 8s 7s 9
mph
1014.2mb 52f 55f
6:50 6ft 8s 7s 4 7 mph 1013.6mb 52f 55f
5:50 6ft 8s 7s 11 13 mph 1012.9mb 51f 55f
4:50 7ft 8s 6s 11 13 mph 1012.6mb 51f 55f
3:50 8ft 8s 6s 16 20 mph 1012.3mb 52f 55f
2:50 7.5ft 8s 6s 20 25 mph 1011.9mb 52f 55f
1:50 7ft 8s 6s 20 25 mph 1012.4mb 52f 56f
12:50 7.5ft 9s 6s 18 20 mph 1013.6mb 52f 54f
dim. 04/26 11:50 8ft 8s 6s 25 29 mph 1014mb 53f 54f
10:50 7ft 8s 6s 27 31 mph 1014.4mb 53f 54f
9:50 7ft 8s 6s 27 34 mph 1015mb 53f 55f
8:50 7.5ft 8s 6s 22 27 mph 1015.5mb 53f 55f
7:50 7.5ft 8s 6s 22 27 mph 1015.2mb 53f 55f
6:50 9ft 8s 6s 27 31 mph 1015mb 53f 55f
5:50 8ft 8s 6s 27 31 mph 1015.3mb 53f 55f
4:50 8.5ft 8s 6s 27 31 mph 1015.5mb 53f 55f
3:50 9ft 8s 6s 27 31 mph 1016mb 53f 55f
2:50 9ft 8s 6s 27 31 mph 1016.8mb 53f 55f
1:50 9ft 8s 6s 27 34 mph 1017.5mb 53f 55f
12:50 9ft 9s 7s 27 31 mph 1018mb 53f 54f
11:50 9ft 8s 6s 25 29 mph 1018.2mb 53f 54f
10:50 8.5ft 8s 6s 25 29 mph 1018.1mb 53f 54f
9:50 8ft 8s 6s 25 29 mph 1017.8mb 53f 54f
8:50 9ft 8s 6s 25 29 mph 1017.5mb 53f 54f
7:50 10ft 8s 7s 25 31 mph 1017.2mb 53f 54f
6:50 10ft 8s 7s 29 34 mph 1016.5mb 53f 53f
5:50 9ft 8s 6s 29 34 mph 1016mb 53f 54f
4:50 9ft 8s 7s 27 34 mph 1015.9mb 53f 54f
3:50 8.5ft 9s 6s 27 34 mph 1015.8mb 53f 54f
2:50 9.5ft 8s 7s 27 34 mph 1015.7mb 53f 54f
1:50 9ft 9s 6s 27 31 mph 1016.1mb 53f 54f
12:50 9ft 8s 6s 27 36 mph 1015.9mb 53f 54f
sam. 04/25 11:50 9ft 8s 6s 29 36 mph 1015.8mb 54f 55f
10:50 9ft 7s 6s 25 31 mph 1016mb 55f 55f
9:50 8ft 7s 6s 27 34 mph 1015.9mb 55f 55f
8:50 8ft 15s 6s 29 36 mph 1015.3mb 55f 55f
7:50 7.5ft 14s 6s 27 31 mph 1014.8mb 55f 55f
6:50 7ft 14s 6s 27 34 mph 1014.5mb 55f 56f
5:50 6.5ft 15s 6s 25 31 mph 1014.2mb 55f 56f
4:50 7ft 15s 6s 25 29 mph 1014.5mb 55f 56f
3:50 7ft 15s 7s 22 27 mph 1014.7mb 55f 56f
2:50 7ft 15s 7s 18 20 mph 1015.1mb 55f 56f
1:50 6.5ft 15s 6s 16 18 mph 1015.3mb 55f 56f
12:50 6.5ft 15s 7s 16 18 mph 1015.1mb 55f 57f
11:50 6.5ft 15s 7s 20 25 mph 1015.3mb 55f 58f
10:50 6.5ft 16s 8s 16 20 mph 1015.6mb 55f 57f
9:50 5ft 16s 7s 13 16 mph 1016mb 55f 57f
8:50 5ft 16s 7s 9 11 mph 1015.9mb 55f 55f
7:50 5ft 16s 7s 7 9 mph 1016mb 55f 55f
6:50 5ft 11s 6s 11
mph
1015.9mb 55f 55f
5:50 5.5ft 11s 6s 11 13 mph 1015.6mb 55f 55f
4:50 5.5ft 6s 6s 13 18 mph 1015.5mb 55f 55f
3:50 5ft 7s 6s 18 22 mph 1015.9mb 55f 55f
2:50 5.5ft 8s 6s 18 22 mph 1016mb 55f 55f
1:50 6ft 7s 6s 16
mph
1016.2mb 56f 55f
12:50 6ft 8s 6s 18 22 mph 1016.6mb 56f 55f
ven. 04/24 11:50 6ft 7s 6s 18 20 mph 1016.6mb 56f 55f
10:50 6ft 8s 6s 22 27 mph 1016.4mb 56f 56f
9:50 6ft 8s 6s 22 27 mph 1016.6mb 56f 56f
8:50 6ft 9s 5s 27 29 mph 1016.2mb 56f 56f
7:50 5.5ft 8s 6s 22 27 mph 1016mb 56f 56f
6:50 6ft 11s 6s 22 27 mph 1015.6mb 56f 56f
5:50 6ft 11s 6s 22 27 mph 1015.5mb 56f 56f